createdAt,value
2023-03-13T00:01:26.776Z,22.10
2023-03-13T00:03:55.685Z,18.50
2023-03-13T00:06:24.414Z,17.60
2023-03-13T00:08:52.595Z,19.20
2023-03-13T00:11:20.784Z,22.10
2023-03-13T00:13:48.853Z,15.40
2023-03-13T00:16:17.045Z,19.20
2023-03-13T00:18:46.678Z,21.50
2023-03-13T00:21:14.741Z,21.80
2023-03-13T00:23:42.737Z,19.80
2023-03-13T00:26:18.870Z,14.30
2023-03-13T00:28:46.995Z,15.80
2023-03-13T00:31:17.087Z,16.40
2023-03-13T00:33:46.839Z,20.90
2023-03-13T00:36:18.731Z,15.90
2023-03-13T00:38:46.793Z,18.00
2023-03-13T00:41:19.813Z,15.20
2023-03-13T00:43:48.914Z,15.30
2023-03-13T00:46:18.554Z,20.00
2023-03-13T00:48:47.176Z,20.60
2023-03-13T00:51:15.790Z,18.40
2023-03-13T00:53:43.867Z,23.10
2023-03-13T00:56:21.565Z,20.50
2023-03-13T00:58:50.356Z,22.50
2023-03-13T01:01:21.295Z,16.40
2023-03-13T01:03:53.894Z,19.10
2023-03-13T01:06:24.086Z,21.40
2023-03-13T01:08:52.157Z,19.50
2023-03-13T01:11:24.920Z,18.00
2023-03-13T01:13:57.048Z,17.20
2023-03-13T01:16:28.325Z,18.70
2023-03-13T01:18:58.931Z,17.20
2023-03-13T01:21:27.203Z,19.10
2023-03-13T01:23:55.605Z,19.00
2023-03-13T01:26:24.387Z,18.50
2023-03-13T01:28:52.516Z,18.30
2023-03-13T01:31:27.918Z,13.50
2023-03-13T01:33:57.910Z,20.00
2023-03-13T01:36:26.434Z,18.80
2023-03-13T01:38:56.088Z,23.10
2023-03-13T01:41:25.602Z,22.30
2023-03-13T01:43:55.633Z,21.10
2023-03-13T01:46:28.366Z,23.70
2023-03-13T01:49:08.185Z,21.30
2023-03-13T01:51:42.618Z,21.20
2023-03-13T01:54:22.796Z,16.80
2023-03-13T01:57:00.468Z,25.30
2023-03-13T02:02:16.793Z,15.70
2023-03-13T02:04:50.766Z,18.70
2023-03-13T02:07:22.364Z,20.20
2023-03-13T02:09:52.213Z,17.70
2023-03-13T02:12:31.602Z,19.80
2023-03-13T02:15:00.832Z,20.00
2023-03-13T02:17:29.090Z,19.20
2023-03-13T02:19:57.173Z,18.20
2023-03-13T02:22:25.234Z,18.70
2023-03-13T02:25:23.983Z,16.00
2023-03-13T02:28:08.689Z,21.20
2023-03-13T02:30:38.097Z,18.80
2023-03-13T02:33:06.110Z,16.70
2023-03-13T02:35:35.956Z,14.50
2023-03-13T02:38:06.772Z,17.40
2023-03-13T02:40:38.051Z,16.80
2023-03-13T02:43:09.435Z,14.00
2023-03-13T02:45:37.463Z,14.70
2023-03-13T02:48:06.054Z,19.50
2023-03-13T02:50:34.371Z,16.80
2023-03-13T02:53:04.818Z,17.30
2023-03-13T02:55:40.524Z,16.80
2023-03-13T02:58:08.770Z,17.30
2023-03-13T03:00:37.637Z,22.20
2023-03-13T03:03:05.671Z,22.30
2023-03-13T03:05:33.592Z,18.00
2023-03-13T03:08:01.607Z,18.10
2023-03-13T03:10:29.741Z,15.80
2023-03-13T03:12:58.176Z,19.70
2023-03-13T03:15:26.284Z,17.80
2023-03-13T03:17:54.638Z,18.90
2023-03-13T03:20:22.841Z,20.20
2023-03-13T03:22:51.726Z,18.10
2023-03-13T03:25:21.544Z,18.50
2023-03-13T03:27:49.910Z,15.30
2023-03-13T03:30:18.581Z,15.50
2023-03-13T03:32:46.750Z,19.00
2023-03-13T03:35:14.794Z,18.40
2023-03-13T03:37:43.096Z,22.20
2023-03-13T03:40:12.047Z,21.00
2023-03-13T03:42:40.049Z,26.20
2023-03-13T03:45:08.804Z,21.60
2023-03-13T03:47:36.995Z,22.80
2023-03-13T03:50:05.431Z,22.60
2023-03-13T03:52:37.812Z,23.30
2023-03-13T03:55:06.162Z,28.50
2023-03-13T03:57:34.178Z,43.80
2023-03-13T04:00:02.681Z,24.20
2023-03-13T04:02:40.773Z,27.20
2023-03-13T04:05:09.709Z,24.00
2023-03-13T04:07:40.444Z,42.00
2023-03-13T04:10:09.145Z,27.20
2023-03-13T04:12:43.126Z,24.10
2023-03-13T04:15:11.526Z,24.90
2023-03-13T04:17:39.646Z,27.30
2023-03-13T04:20:09.782Z,24.60
2023-03-13T04:22:37.792Z,34.70
2023-03-13T04:25:06.718Z,31.60
2023-03-13T04:27:34.896Z,23.90
2023-03-13T04:30:04.573Z,23.00
2023-03-13T04:32:51.517Z,22.90
2023-03-13T04:35:40.052Z,23.60
2023-03-13T04:38:28.424Z,18.40
2023-03-13T04:41:07.996Z,19.40
2023-03-13T04:43:48.955Z,22.20
2023-03-13T04:46:34.250Z,19.90
2023-03-13T04:49:35.219Z,25.40
2023-03-13T04:52:21.147Z,20.80
2023-03-13T04:55:18.121Z,20.70
2023-03-13T04:58:10.633Z,23.50
2023-03-13T05:00:44.969Z,19.90
2023-03-13T05:03:36.193Z,19.90
2023-03-13T05:06:30.376Z,23.00
2023-03-13T05:09:15.277Z,17.80
2023-03-13T05:12:09.359Z,22.00
2023-03-13T05:15:03.626Z,17.70
2023-03-13T05:17:50.127Z,25.00
2023-03-13T05:20:33.486Z,21.10
2023-03-13T05:23:10.604Z,26.80
2023-03-13T05:25:57.482Z,25.50
2023-03-13T05:28:40.547Z,22.00
2023-03-13T05:31:34.923Z,22.30
2023-03-13T05:34:23.998Z,28.00
2023-03-13T05:37:10.887Z,38.90
2023-03-13T05:39:54.008Z,34.50
2023-03-13T05:42:31.523Z,28.40
2023-03-13T05:45:28.727Z,31.50
2023-03-13T05:48:02.390Z,28.00
2023-03-13T05:50:59.626Z,24.30
2023-03-13T05:53:47.924Z,21.50
2023-03-13T05:56:34.457Z,27.40
2023-03-13T05:59:23.320Z,20.20
2023-03-13T06:01:58.857Z,29.20
2023-03-13T06:04:31.522Z,23.20
2023-03-13T06:06:59.746Z,22.90
2023-03-13T06:09:28.507Z,25.90
2023-03-13T06:11:57.992Z,27.90
2023-03-13T06:14:26.295Z,35.70
2023-03-13T06:17:17.693Z,28.00
2023-03-13T06:19:46.922Z,28.50
2023-03-13T06:22:16.445Z,33.10
2023-03-13T06:24:45.124Z,27.90
2023-03-13T06:27:13.153Z,29.30
2023-03-13T06:29:41.146Z,27.10
2023-03-13T06:32:09.321Z,29.80
2023-03-13T06:34:37.616Z,28.60
2023-03-13T06:37:05.745Z,28.70
2023-03-13T06:39:34.119Z,26.90
2023-03-13T06:42:02.136Z,24.30
2023-03-13T06:44:30.127Z,25.00
2023-03-13T06:46:58.357Z,26.80
2023-03-13T06:49:26.497Z,30.90
2023-03-13T06:51:56.966Z,19.50
2023-03-13T06:54:24.960Z,29.20
2023-03-13T06:56:52.953Z,21.70
2023-03-13T06:59:21.063Z,27.80
2023-03-13T07:01:49.119Z,23.30
2023-03-13T07:04:17.501Z,22.60
2023-03-13T07:06:45.517Z,21.30
2023-03-13T07:09:13.780Z,24.80
2023-03-13T07:11:41.862Z,20.00
2023-03-13T07:14:17.063Z,20.90
2023-03-13T07:16:46.170Z,22.60
2023-03-13T07:19:15.366Z,22.30
2023-03-13T07:21:44.178Z,20.90
2023-03-13T07:24:12.760Z,20.20
2023-03-13T07:26:48.552Z,20.00
2023-03-13T07:29:22.539Z,18.40
2023-03-13T07:31:50.815Z,16.50
2023-03-13T07:34:18.999Z,17.60
2023-03-13T07:36:47.208Z,18.00
2023-03-13T07:39:15.298Z,21.60
2023-03-13T07:41:43.331Z,29.90
2023-03-13T07:44:16.274Z,19.00
2023-03-13T07:46:44.392Z,22.90
2023-03-13T07:49:12.505Z,20.10
2023-03-13T07:51:43.926Z,19.70
2023-03-13T07:54:12.536Z,20.90
2023-03-13T07:56:40.654Z,21.70
2023-03-13T07:59:09.408Z,20.50
2023-03-13T08:01:37.599Z,20.80
2023-03-13T08:04:05.875Z,16.10
2023-03-13T08:06:35.698Z,28.40
2023-03-13T08:09:06.713Z,22.50
2023-03-13T08:11:34.828Z,18.90
2023-03-13T08:14:02.913Z,20.00
2023-03-13T08:16:34.199Z,15.70
2023-03-13T08:19:05.138Z,19.00
2023-03-13T08:21:37.113Z,21.40
2023-03-13T08:24:08.627Z,33.40
2023-03-13T08:26:37.639Z,23.30
2023-03-13T08:29:10.432Z,21.50
2023-03-13T08:31:48.511Z,18.10
2023-03-13T08:34:16.682Z,14.20
2023-03-13T08:36:45.025Z,18.90
2023-03-13T08:39:14.695Z,18.90
2023-03-13T08:41:42.902Z,16.10
2023-03-13T08:44:12.576Z,24.90
2023-03-13T08:46:41.177Z,15.70
2023-03-13T08:49:09.678Z,22.20
2023-03-13T08:51:37.865Z,25.30
2023-03-13T08:54:06.051Z,22.20
2023-03-13T08:56:34.974Z,21.10
2023-03-13T08:59:04.077Z,18.00
2023-03-13T09:01:33.617Z,15.80
2023-03-13T09:04:04.272Z,13.30
2023-03-13T09:06:33.955Z,13.40
2023-03-13T09:09:02.212Z,14.20
2023-03-13T09:11:30.339Z,14.30
2023-03-13T09:14:01.123Z,15.10
2023-03-13T09:16:30.245Z,15.50
2023-03-13T09:18:58.425Z,16.70
2023-03-13T09:21:28.943Z,16.20
2023-03-13T09:23:57.708Z,13.50
2023-03-13T09:26:25.854Z,13.60
2023-03-13T09:28:53.966Z,12.10
2023-03-13T09:31:30.064Z,14.30
2023-03-13T09:33:58.519Z,12.20
2023-03-13T09:36:26.707Z,12.90
2023-03-13T09:38:56.585Z,13.50
2023-03-13T09:41:57.334Z,13.20
2023-03-13T09:44:27.007Z,10.70
2023-03-13T09:47:04.590Z,9.90
2023-03-13T09:49:34.976Z,11.10
2023-03-13T09:52:27.037Z,10.50
2023-03-13T09:54:59.372Z,12.00
2023-03-13T09:57:52.553Z,9.40
2023-03-13T10:00:29.534Z,9.40
2023-03-13T10:03:17.179Z,9.10
2023-03-13T10:08:24.597Z,11.20
2023-03-13T10:11:09.582Z,12.20
2023-03-13T10:13:56.012Z,10.10
2023-03-13T10:16:35.452Z,8.80
2023-03-13T10:19:11.558Z,9.80
2023-03-13T10:21:39.720Z,10.20
2023-03-13T10:24:19.548Z,10.00
2023-03-13T10:26:47.557Z,8.00
2023-03-13T10:29:26.515Z,8.10
2023-03-13T10:32:05.399Z,7.30
2023-03-13T10:34:55.650Z,7.90
2023-03-13T10:37:28.915Z,8.50
2023-03-13T10:40:24.809Z,8.50
2023-03-13T10:42:54.173Z,5.10
2023-03-13T10:45:25.078Z,7.20
2023-03-13T10:47:57.647Z,6.90
2023-03-13T10:50:32.892Z,6.90
2023-03-13T10:53:13.246Z,5.60
2023-03-13T10:55:43.068Z,5.40
2023-03-13T10:58:17.620Z,5.70
2023-03-13T11:00:45.994Z,4.80
2023-03-13T11:03:19.626Z,5.20
2023-03-13T11:06:00.952Z,5.80
2023-03-13T11:08:34.865Z,4.80
2023-03-13T11:11:15.538Z,5.90
2023-03-13T11:13:43.985Z,4.70
2023-03-13T11:16:20.289Z,5.80
2023-03-13T11:19:17.699Z,5.00
2023-03-13T11:21:58.605Z,6.10
2023-03-13T11:24:36.397Z,5.60
2023-03-13T11:27:15.494Z,6.40
2023-03-13T11:30:04.716Z,5.30
2023-03-13T11:32:40.583Z,6.00
2023-03-13T11:35:59.824Z,6.80
2023-03-13T11:38:32.677Z,8.50
2023-03-13T11:41:15.733Z,6.30
2023-03-13T11:43:52.656Z,6.00
2023-03-13T11:49:30.256Z,7.70
2023-03-13T11:52:31.272Z,6.60
2023-03-13T11:55:14.469Z,6.90
2023-03-13T11:58:01.270Z,6.50
2023-03-13T12:00:40.398Z,8.00
2023-03-13T12:03:27.005Z,7.70
2023-03-13T12:05:59.467Z,7.10
2023-03-13T12:08:30.849Z,9.60
2023-03-13T12:11:02.095Z,8.10
2023-03-13T12:13:33.022Z,5.90
2023-03-13T12:16:02.753Z,6.60
2023-03-13T12:18:38.996Z,6.60
2023-03-13T12:21:16.560Z,5.30
2023-03-13T12:23:53.953Z,5.50
2023-03-13T12:26:23.862Z,6.10
2023-03-13T12:29:03.552Z,7.20
2023-03-13T12:31:47.832Z,5.50
2023-03-13T12:34:28.029Z,7.00
2023-03-13T12:37:06.878Z,7.00
2023-03-13T12:39:50.239Z,7.50
2023-03-13T12:42:49.510Z,5.30
2023-03-13T12:45:18.792Z,5.30
2023-03-13T12:48:02.063Z,5.60
2023-03-13T12:50:32.989Z,5.20
2023-03-13T12:53:37.243Z,5.50
2023-03-13T12:56:27.146Z,5.10
2023-03-13T12:59:06.055Z,6.00
2023-03-13T13:01:36.297Z,4.90
2023-03-13T13:04:11.431Z,4.30
2023-03-13T13:06:55.097Z,5.60
2023-03-13T13:09:25.397Z,4.80
2023-03-13T13:11:55.488Z,6.70
2023-03-13T13:14:23.572Z,5.30
2023-03-13T13:17:00.556Z,5.80
2023-03-13T13:19:28.743Z,5.00
2023-03-13T13:22:36.616Z,6.40
2023-03-13T13:25:10.776Z,4.80
2023-03-13T13:27:38.787Z,4.70
2023-03-13T13:30:19.058Z,7.30
2023-03-13T13:32:51.048Z,5.50
2023-03-13T13:35:26.306Z,6.00
2023-03-13T13:38:18.397Z,6.20
2023-03-13T13:40:58.748Z,7.10
2023-03-13T13:43:27.096Z,6.40
2023-03-13T13:46:02.731Z,6.40
2023-03-13T13:48:34.092Z,6.70
2023-03-13T13:51:11.460Z,6.30
2023-03-13T13:53:46.897Z,5.30
2023-03-13T13:56:33.032Z,5.70
2023-03-13T13:59:24.906Z,5.80
2023-03-13T14:02:14.539Z,5.60
2023-03-13T14:04:55.821Z,6.20
2023-03-13T14:07:47.959Z,4.30
2023-03-13T14:10:38.008Z,5.30
2023-03-13T14:13:19.584Z,6.60
2023-03-13T14:15:53.420Z,6.50
2023-03-13T14:18:25.936Z,6.50
2023-03-13T14:21:00.519Z,4.90
2023-03-13T14:23:42.090Z,5.20
2023-03-13T14:26:14.745Z,5.20
2023-03-13T14:28:43.894Z,5.40
2023-03-13T14:31:20.919Z,5.70
2023-03-13T14:36:17.429Z,6.00
2023-03-13T14:38:58.919Z,8.70
2023-03-13T14:41:41.067Z,7.30
2023-03-13T14:44:35.440Z,4.70
2023-03-13T14:47:08.378Z,6.00
2023-03-13T14:49:36.421Z,5.90
2023-03-13T14:52:04.401Z,8.20
2023-03-13T14:54:34.419Z,6.60
2023-03-13T14:57:23.311Z,6.90
2023-03-13T14:59:52.011Z,4.80
2023-03-13T15:02:24.290Z,6.40
2023-03-13T15:05:00.248Z,6.50
2023-03-13T15:07:42.494Z,6.60
2023-03-13T15:10:23.616Z,5.30
2023-03-13T15:12:51.897Z,7.40
2023-03-13T15:15:20.021Z,7.40
2023-03-13T15:17:48.117Z,7.00
2023-03-13T15:20:16.393Z,7.60
2023-03-13T15:22:45.200Z,5.80
2023-03-13T15:25:18.175Z,5.10
2023-03-13T15:27:46.519Z,7.30
2023-03-13T15:30:23.614Z,7.00
2023-03-13T15:35:32.633Z,6.70
2023-03-13T15:38:01.431Z,7.60
2023-03-13T15:40:31.053Z,5.90
2023-03-13T15:42:59.563Z,6.00
2023-03-13T15:45:27.661Z,7.40
2023-03-13T15:47:55.763Z,7.50
2023-03-13T15:50:29.718Z,7.10
2023-03-13T15:52:58.742Z,5.40
2023-03-13T15:55:26.919Z,6.70
2023-03-13T15:57:55.067Z,7.60
2023-03-13T16:00:26.609Z,8.70
2023-03-13T16:02:54.712Z,8.60
2023-03-13T16:05:22.778Z,7.50
2023-03-13T16:07:51.022Z,5.50
2023-03-13T16:10:26.467Z,5.80
2023-03-13T16:12:54.744Z,7.50
2023-03-13T16:15:22.916Z,5.70
2023-03-13T16:17:51.012Z,6.40
2023-03-13T16:20:21.249Z,7.20
2023-03-13T16:22:50.630Z,7.40
2023-03-13T16:25:19.813Z,7.00
2023-03-13T16:27:47.987Z,8.10
2023-03-13T16:30:18.511Z,7.20
2023-03-13T16:32:46.680Z,9.90
2023-03-13T16:35:14.944Z,9.30
2023-03-13T16:37:43.199Z,10.20
2023-03-13T16:40:16.788Z,9.20
2023-03-13T16:42:44.836Z,14.20
2023-03-13T16:45:14.475Z,13.30
2023-03-13T16:47:42.962Z,12.70
2023-03-13T16:50:27.126Z,11.90
2023-03-13T16:52:55.333Z,9.90
2023-03-13T16:55:28.258Z,10.00
2023-03-13T16:58:00.146Z,10.90
2023-03-13T17:00:29.485Z,8.90
2023-03-13T17:02:58.228Z,9.50
2023-03-13T17:05:27.074Z,9.30
2023-03-13T17:07:55.160Z,9.10
2023-03-13T17:10:25.046Z,8.10
2023-03-13T17:12:53.082Z,8.00
2023-03-13T17:15:21.288Z,8.90
2023-03-13T17:17:52.681Z,7.60
2023-03-13T17:20:29.147Z,10.20
2023-03-13T17:22:57.216Z,10.30
2023-03-13T17:25:25.336Z,11.70
2023-03-13T17:27:53.640Z,8.40
2023-03-13T17:30:30.165Z,10.20
2023-03-13T17:32:59.158Z,13.10
2023-03-13T17:35:27.292Z,10.10
2023-03-13T17:37:55.309Z,12.90
2023-03-13T17:40:28.113Z,15.40
2023-03-13T17:42:57.332Z,13.90
2023-03-13T17:45:25.556Z,18.70
2023-03-13T17:47:54.406Z,14.90
2023-03-13T17:50:24.536Z,16.70
2023-03-13T17:52:52.767Z,13.90
2023-03-13T17:55:21.035Z,16.00
2023-03-13T17:57:49.567Z,17.60
2023-03-13T18:00:23.527Z,21.20
2023-03-13T18:02:51.779Z,12.50
2023-03-13T18:05:20.106Z,17.00
2023-03-13T18:07:48.335Z,15.20
2023-03-13T18:10:17.421Z,15.00
2023-03-13T18:12:45.527Z,12.50
2023-03-13T18:15:13.529Z,16.20
2023-03-13T18:17:41.528Z,17.30
2023-03-13T18:20:35.758Z,18.60
2023-03-13T18:23:03.830Z,15.40
2023-03-13T18:25:32.079Z,25.20
2023-03-13T18:28:00.184Z,19.90
2023-03-13T18:30:28.412Z,25.50
2023-03-13T18:32:56.476Z,29.30
2023-03-13T18:35:24.531Z,24.50
2023-03-13T18:37:52.746Z,32.20
2023-03-13T18:40:25.735Z,22.40
2023-03-13T18:42:54.922Z,19.90
2023-03-13T18:45:24.200Z,27.00
2023-03-13T18:47:52.768Z,29.00
2023-03-13T18:50:25.093Z,27.80
2023-03-13T18:52:56.993Z,29.50
2023-03-13T18:55:26.103Z,23.70
2023-03-13T18:57:55.052Z,28.40
2023-03-13T19:00:27.890Z,24.20
2023-03-13T19:02:55.960Z,25.90
2023-03-13T19:05:24.238Z,28.00
2023-03-13T19:07:52.615Z,27.50
2023-03-13T19:10:28.663Z,28.60
2023-03-13T19:12:56.924Z,21.00
2023-03-13T19:15:27.513Z,21.80
2023-03-13T19:17:56.340Z,20.70
2023-03-13T19:20:24.554Z,15.90
2023-03-13T19:22:54.437Z,23.10
2023-03-13T19:25:23.312Z,19.70
2023-03-13T19:27:51.439Z,12.70
2023-03-13T19:30:21.130Z,20.70
2023-03-13T19:32:49.466Z,17.80
2023-03-13T19:35:19.143Z,21.30
2023-03-13T19:37:47.549Z,22.90
2023-03-13T19:40:18.834Z,21.30
2023-03-13T19:42:46.855Z,16.70
2023-03-13T19:45:17.494Z,17.60
2023-03-13T19:47:45.652Z,14.10
2023-03-13T19:50:21.341Z,19.30
2023-03-13T19:52:49.408Z,18.00
2023-03-13T19:55:17.612Z,16.10
2023-03-13T19:57:45.765Z,20.30
2023-03-13T20:00:31.723Z,17.40
2023-03-13T20:02:59.746Z,15.20
2023-03-13T20:05:27.831Z,22.00
2023-03-13T20:07:55.915Z,55.90
2023-03-13T20:10:24.482Z,32.10
2023-03-13T20:12:53.669Z,28.20
2023-03-13T20:15:21.808Z,32.10
2023-03-13T20:17:49.971Z,19.60
2023-03-13T20:20:18.380Z,52.20
2023-03-13T20:22:46.613Z,28.70
2023-03-13T20:25:27.763Z,26.30
2023-03-13T20:28:01.524Z,28.10
2023-03-13T20:30:29.629Z,34.30
2023-03-13T20:32:59.855Z,33.70
2023-03-13T20:35:28.423Z,31.50
2023-03-13T20:37:58.621Z,27.30
2023-03-13T20:40:26.816Z,31.70
2023-03-13T20:42:54.967Z,23.30
2023-03-13T20:45:23.014Z,22.10
2023-03-13T20:47:51.086Z,29.70
2023-03-13T20:50:19.791Z,24.80
2023-03-13T20:52:48.796Z,20.10
2023-03-13T20:55:17.311Z,18.20
2023-03-13T20:57:45.360Z,23.30
2023-03-13T21:00:13.891Z,18.40
2023-03-13T21:02:41.920Z,23.10
2023-03-13T21:05:10.097Z,22.00
2023-03-13T21:07:38.146Z,21.00
2023-03-13T21:10:06.820Z,20.30
2023-03-13T21:12:36.352Z,15.50
2023-03-13T21:15:06.178Z,19.60
2023-03-13T21:17:34.621Z,23.40
2023-03-13T21:20:08.410Z,16.70
2023-03-13T21:22:36.430Z,17.10
2023-03-13T21:25:05.117Z,19.60
2023-03-13T21:27:33.474Z,17.10
2023-03-13T21:30:02.276Z,23.20
2023-03-13T21:32:30.458Z,24.50
2023-03-13T21:34:58.634Z,17.10
2023-03-13T21:37:26.737Z,24.40
2023-03-13T21:39:54.816Z,20.40
2023-03-13T21:42:22.962Z,25.90
2023-03-13T21:44:50.993Z,18.60
2023-03-13T21:47:24.334Z,22.70
2023-03-13T21:49:53.470Z,24.10
2023-03-13T21:52:21.807Z,24.50
2023-03-13T21:54:49.824Z,19.00
2023-03-13T21:57:17.738Z,14.50
2023-03-13T21:59:45.699Z,26.20
2023-03-13T22:02:14.009Z,25.10
2023-03-13T22:04:44.500Z,19.20
2023-03-13T22:07:12.528Z,28.20
2023-03-13T22:09:40.573Z,21.00
2023-03-13T22:12:08.527Z,26.20
2023-03-13T22:14:36.616Z,17.30
2023-03-13T22:17:04.663Z,20.10
2023-03-13T22:19:36.149Z,21.90
2023-03-13T22:22:04.393Z,22.40
2023-03-13T22:24:32.392Z,19.90
2023-03-13T22:27:00.339Z,15.50
2023-03-13T22:29:31.947Z,21.50
2023-03-13T22:32:04.797Z,19.30
2023-03-13T22:34:32.935Z,17.80
2023-03-13T22:37:26.853Z,22.30
2023-03-13T22:39:56.268Z,21.00
2023-03-13T22:42:27.143Z,25.00
2023-03-13T22:44:55.742Z,17.20
2023-03-13T22:47:25.940Z,16.40
2023-03-13T22:49:54.130Z,19.10
2023-03-13T22:52:28.868Z,20.10
2023-03-13T22:54:58.021Z,21.20
2023-03-13T22:57:26.076Z,28.30
2023-03-13T22:59:54.106Z,26.20
2023-03-13T23:02:22.486Z,25.10
2023-03-13T23:04:50.878Z,24.10
2023-03-13T23:07:18.929Z,22.30
2023-03-13T23:09:46.892Z,25.20
2023-03-13T23:12:14.863Z,27.00
2023-03-13T23:14:42.973Z,26.50
2023-03-13T23:17:11.119Z,24.30
2023-03-13T23:19:39.140Z,21.30
2023-03-13T23:22:07.108Z,26.60
2023-03-13T23:24:35.137Z,29.00
2023-03-13T23:27:03.169Z,24.30
2023-03-13T23:29:31.110Z,18.30
2023-03-13T23:31:59.068Z,24.90
2023-03-13T23:34:27.094Z,22.20
2023-03-13T23:36:55.126Z,22.60
2023-03-13T23:39:23.065Z,20.50
2023-03-13T23:41:51.049Z,25.50
2023-03-13T23:44:19.101Z,22.50
2023-03-13T23:46:47.088Z,22.10
2023-03-13T23:49:15.317Z,20.50
2023-03-13T23:51:43.394Z,26.70
2023-03-13T23:54:11.547Z,22.50
2023-03-13T23:56:39.542Z,19.60
2023-03-13T23:59:07.523Z,29.30
